Time;durP1;ratioP1;P1;durP2;ratioP2;P2;SDS_P1;SDS_P2;PMS_P1;PMS_P2;Temp;Humidity;BMP_temperature;BMP_pressure;BME280_temperature;BME280_humidity;BME280_pressure;Samples;Min_cycle;Max_cycle;Signal;HPM_P1;HPM_P2
2022/04/09 00:01:04;;;;;;;4.30;3.85;;;3.00;99.90;;;2.62;100.00;99129.38;5025067;28;20057;-77
2022/04/09 00:03:31;;;;;;;4.93;4.43;;;4.30;99.90;;;2.58;100.00;99140.69;5007836;28;20789;-77
2022/04/09 00:06:02;;;;;;;4.00;3.60;;;3.00;99.90;;;2.56;100.00;99156.28;5013230;28;20352;-78
2022/04/09 00:08:33;;;;;;;4.15;3.58;;;3.00;99.90;;;2.47;100.00;99164.16;4983700;28;20054;-78
2022/04/09 00:11:00;;;;;;;4.53;3.83;;;4.10;99.90;;;2.44;100.00;99157.28;5015470;28;20065;-78
2022/04/09 00:13:27;;;;;;;3.85;3.45;;;5.60;99.90;;;2.46;100.00;99159.84;5017848;28;20558;-77
2022/04/09 00:15:55;;;;;;;3.88;3.47;;;4.80;99.90;;;2.39;100.00;99169.44;5009427;28;20674;-77
2022/04/09 00:18:21;;;;;;;3.83;3.50;;;2.90;99.90;;;2.40;100.00;99171.16;5008229;28;20474;-77
2022/04/09 00:20:49;;;;;;;3.50;3.20;;;3.40;99.90;;;2.41;100.00;99172.88;5010748;28;20050;-77
2022/04/09 00:23:18;;;;;;;3.35;3.05;;;2.90;99.90;;;2.45;100.00;99181.50;5006793;28;20456;-76
2022/04/09 00:25:46;;;;;;;2.90;2.70;;;3.00;99.90;;;2.40;100.00;99187.59;5004667;28;20101;-76
2022/04/09 00:28:13;;;;;;;3.92;3.50;;;2.80;99.90;;;2.46;100.00;99194.47;5007601;28;20042;-77
2022/04/09 00:30:41;;;;;;;3.55;3.25;;;2.80;99.90;;;2.44;100.00;99198.81;5007860;28;20045;-77
2022/04/09 00:33:08;;;;;;;3.00;2.75;;;2.80;99.90;;;2.45;100.00;99202.25;5023690;28;20147;-77
2022/04/09 00:35:35;;;;;;;4.05;3.13;;;2.90;99.90;;;2.47;100.00;99216.97;5007022;28;20067;-77
2022/04/09 00:38:02;;;;;;;3.55;3.10;;;2.90;99.90;;;2.51;100.00;99236.81;5008000;28;20053;-77
2022/04/09 00:40:29;;;;;;;3.83;3.03;;;2.80;99.90;;;2.49;100.00;99238.56;5023680;28;20057;-77
2022/04/09 00:42:57;;;;;;;3.90;3.50;;;2.70;99.90;;;2.38;100.00;99253.38;4989954;28;20050;-77
2022/04/09 00:45:24;;;;;;;4.68;3.65;;;2.90;99.90;;;2.40;100.00;99254.22;4990181;28;20551;-78
2022/04/09 00:47:52;;;;;;;5.95;4.65;;;2.80;99.90;;;2.45;100.00;99277.56;4989518;28;20050;-77
2022/04/09 00:50:19;;;;;;;5.35;4.15;;;2.90;99.90;;;2.45;100.00;99288.81;4988897;28;20053;-76
2022/04/09 00:52:52;;;;;;;4.60;3.92;;;2.80;99.90;;;2.48;100.00;99312.16;5000691;28;20056;-76
2022/04/09 00:56:12;;;;;;;6.30;4.82;;;3.00;99.90;;;2.41;100.00;99318.25;5025297;28;20069;-77
2022/04/09 00:58:14;;;;;;;9.80;6.88;;;3.70;99.90;;;2.47;100.00;99317.34;4994388;28;20148;-77
2022/04/09 01:00:43;;;;;;;10.82;8.40;;;2.90;99.90;;;2.42;100.00;99327.78;5007956;28;20096;-77
2022/04/09 01:03:12;;;;;;;12.75;8.98;;;2.90;99.90;;;2.44;100.00;99338.16;5008135;28;20042;-77
2022/04/09 01:05:41;;;;;;;8.35;6.22;;;2.80;99.90;;;2.41;100.00;99354.59;4991854;28;20076;-77
2022/04/09 01:08:09;;;;;;;7.95;5.93;;;4.20;99.90;;;2.43;100.00;99355.47;5007765;28;20049;-78
2022/04/09 01:10:37;;;;;;;4.72;3.95;;;3.40;99.90;;;2.45;100.00;99363.25;5007582;28;20137;-77
2022/04/09 01:13:05;;;;;;;3.50;2.97;;;2.90;99.90;;;2.46;100.00;99376.22;4990048;28;20042;-76
2022/04/09 01:15:33;;;;;;;3.42;3.13;;;2.80;99.90;;;2.50;100.00;99387.47;4991362;28;20046;-77
2022/04/09 01:18:01;;;;;;;3.60;3.08;;;2.90;99.90;;;2.48;100.00;99384.88;5007068;28;20132;-77
2022/04/09 01:20:29;;;;;;;2.53;2.33;;;3.80;99.90;;;2.50;100.00;99395.25;5024006;28;20042;-77
2022/04/09 01:22:57;;;;;;;2.67;2.47;;;2.90;99.90;;;2.52;100.00;99412.53;5021130;28;20136;-76
2022/04/09 01:25:24;;;;;;;3.38;2.92;;;5.00;99.90;;;2.51;100.00;99428.97;5006309;28;20446;-76
2022/04/09 01:27:56;;;;;;;2.75;2.47;;;3.20;99.90;;;2.57;100.00;99435.00;4991090;28;20081;-77
2022/04/09 01:30:23;;;;;;;33.80;5.05;;;2.90;99.90;;;2.48;100.00;99442.00;5006985;28;20073;-77
2022/04/09 01:32:50;;;;;;;3.08;2.78;;;2.90;99.90;;;2.47;100.00;99444.59;5006732;28;20403;-76
2022/04/09 01:35:18;;;;;;;4.10;2.90;;;2.80;99.90;;;2.53;100.00;99453.22;4991342;28;20057;-76
2022/04/09 01:37:46;;;;;;;3.40;3.10;;;2.90;99.90;;;2.54;100.00;99454.09;5007044;28;20050;-76
2022/04/09 01:40:13;;;;;;;3.92;3.53;;;2.90;99.90;;;2.49;100.00;99459.28;5007255;28;20145;-76
2022/04/09 01:42:45;;;;;;;3.72;3.30;;;2.90;99.90;;;2.48;100.00;99469.69;5022087;28;20920;-76
2022/04/09 01:45:12;;;;;;;4.03;3.20;;;3.00;99.90;;;2.47;100.00;99486.13;5006663;28;20056;-76
2022/04/09 01:47:42;;;;;;;3.60;3.17;;;5.50;99.90;;;2.38;100.00;99482.72;5006886;28;20148;-76
2022/04/09 01:50:11;;;;;;;4.90;3.50;;;2.80;99.90;;;2.47;100.00;99487.00;5007895;28;20096;-77
2022/04/09 01:52:39;;;;;;;4.10;2.90;;;2.90;99.90;;;2.51;100.00;99503.44;4990453;28;20057;-76
2022/04/09 01:55:07;;;;;;;4.32;2.97;;;4.30;99.90;;;2.52;100.00;99497.38;5006296;28;20122;-75
2022/04/09 01:57:37;;;;;;;3.28;2.97;;;3.00;99.90;;;2.48;100.00;99517.28;5024029;28;20045;-75
2022/04/09 02:00:10;;;;;;;3.20;2.90;;;2.90;99.90;;;2.51;100.00;99526.81;5007057;28;20054;-78
2022/04/09 02:02:43;;;;;;;2.90;2.70;;;2.90;99.90;;;2.44;100.00;99531.16;4990852;28;20519;-75
2022/04/09 02:05:13;;;;;;;2.63;2.42;;;3.00;99.90;;;2.49;100.00;99544.09;5006242;28;20061;-75
2022/04/09 02:07:42;;;;;;;2.85;2.53;;;3.10;99.90;;;2.47;100.00;99554.53;5006270;28;20058;-76
2022/04/09 02:10:11;;;;;;;3.42;2.60;;;4.20;99.90;;;2.46;100.00;99554.50;5006555;28;20046;-76
2022/04/09 02:12:42;;;;;;;2.70;2.45;;;4.40;99.90;;;2.40;100.00;99558.00;5006354;28;20038;-76
2022/04/09 02:15:14;;;;;;;3.05;2.50;;;5.10;99.90;;;2.48;100.00;99563.16;5006342;28;20761;-76
2022/04/09 02:17:43;;;;;;;2.83;2.50;;;5.10;99.90;;;2.45;100.00;99570.97;5023197;28;20497;-76
2022/04/09 02:20:13;;;;;;;2.53;2.22;;;3.00;99.90;;;2.47;100.00;99583.09;5006496;28;20050;-77
2022/04/09 02:22:45;;;;;;;2.38;2.15;;;2.90;99.90;;;2.48;100.00;99584.81;4989943;28;20054;-77
2022/04/09 02:25:17;;;;;;;2.55;2.00;;;2.90;99.90;;;2.48;100.00;99587.41;5006307;28;20054;-77
2022/04/09 02:27:45;;;;;;;2.40;2.20;;;2.90;99.90;;;2.53;100.00;99592.59;5007236;28;20484;-77
2022/04/09 02:30:16;;;;;;;2.55;2.30;;;3.00;99.90;;;2.43;100.00;99596.97;5007486;28;20042;-77
2022/04/09 02:32:51;;;;;;;3.10;2.55;;;2.90;99.90;;;2.49;100.00;99609.03;5010069;28;20129;-76
2022/04/09 02:35:23;;;;;;;3.13;2.25;;;3.00;99.90;;;2.51;100.00;99617.72;5021180;28;20042;-78
2022/04/09 02:37:51;;;;;;;3.22;2.53;;;2.90;99.90;;;2.53;100.00;99634.16;4991545;28;20130;-78
2022/04/09 02:40:20;;;;;;;4.53;2.65;;;3.00;99.90;;;2.53;100.00;99642.78;5009359;28;20112;-78
2022/04/09 02:42:49;;;;;;;3.55;2.78;;;3.00;99.90;;;2.50;100.00;99648.00;5010992;28;20081;-77
2022/04/09 02:45:16;;;;;;;4.97;2.78;;;3.20;99.90;;;2.50;100.00;99655.78;4996593;28;20045;-78
2022/04/09 02:47:46;;;;;;;;;;;2.70;99.90;;;2.55;100.00;99661.81;5030830;28;20077;-79
2022/04/09 02:50:18;;;;;;;3.50;2.25;;;2.90;99.90;;;2.51;100.00;99667.06;5014798;28;20442;-78
2022/04/09 02:52:47;;;;;;;3.15;2.78;;;2.80;99.90;;;2.44;100.00;99667.91;4997374;28;20494;-78
2022/04/09 02:55:15;;;;;;;3.55;2.80;;;1.50;99.90;;;2.47;100.00;99673.97;5013748;28;20050;-78
2022/04/09 02:57:43;;;;;;;4.75;2.80;;;3.10;99.90;;;2.48;100.00;99674.81;5013262;28;20050;-78
2022/04/09 03:00:13;;;;;;;6.50;3.30;;;2.80;99.90;;;2.48;100.00;99673.09;5030224;28;20686;-77
2022/04/09 03:02:42;;;;;;;4.38;3.55;;;3.00;99.90;;;2.47;100.00;99681.78;5012656;28;20192;-78
2022/04/09 03:05:28;;;;;;;4.53;3.17;;;4.10;99.90;;;2.50;100.00;99702.53;5016701;28;20046;-78
2022/04/09 03:07:55;;;;;;;4.53;3.55;;;2.90;99.90;;;2.47;100.00;99699.94;5013549;28;20053;-77
2022/04/09 03:10:22;;;;;;;5.22;3.60;;;3.00;99.90;;;2.49;100.00;99711.19;5011446;28;20046;-78
2022/04/09 03:12:49;;;;;;;7.40;4.03;;;4.20;99.90;;;2.47;100.00;99707.72;5012529;28;20406;-77
2022/04/09 03:15:16;;;;;;;5.13;4.18;;;2.90;99.90;;;2.47;100.00;99712.06;5012937;28;20388;-78
2022/04/09 03:17:44;;;;;;;4.57;4.13;;;3.00;99.90;;;2.38;100.00;99719.00;5011461;28;20052;-78
2022/04/09 03:20:15;;;;;;;6.80;4.65;;;2.90;99.90;;;2.41;100.00;99731.97;5011217;28;20050;-78
2022/04/09 03:22:49;;;;;;;5.10;4.57;;;2.70;99.90;;;2.38;100.00;99724.19;5009572;28;20054;-78
2022/04/09 03:25:26;;;;;;;7.45;4.65;;;2.80;99.90;;;2.32;100.00;99737.16;4990406;28;20060;-78
2022/04/09 03:27:55;;;;;;;5.75;4.72;;;2.90;99.90;;;2.26;100.00;99743.25;5005797;28;20490;-78
2022/04/09 03:30:23;;;;;;;5.38;4.05;;;3.20;99.90;;;2.31;100.00;99752.75;5009569;28;20042;-78
2022/04/09 03:32:52;;;;;;;5.45;4.43;;;2.80;99.90;;;2.21;100.00;99752.75;5009698;28;20135;-78
2022/04/09 03:35:24;;;;;;;6.03;4.40;;;2.80;99.90;;;2.29;100.00;99763.13;5009796;28;20368;-78
2022/04/09 03:37:54;;;;;;;5.20;4.70;;;2.80;99.90;;;2.28;100.00;99770.94;5009095;28;20051;-78
2022/04/09 03:40:27;;;;;;;5.70;4.75;;;2.70;99.90;;;2.27;100.00;99780.44;5009873;28;20066;-77
2022/04/09 03:42:54;;;;;;;5.38;4.53;;;3.90;99.90;;;2.27;100.00;99783.03;5005794;28;20453;-77
2022/04/09 03:45:21;;;;;;;6.07;4.63;;;2.80;99.90;;;2.26;100.00;99789.97;5006003;28;20046;-78
2022/04/09 03:47:49;;;;;;;5.78;4.82;;;2.70;99.90;;;2.28;100.00;99791.69;5008548;28;20046;-78
2022/04/09 03:50:17;;;;;;;6.07;4.47;;;2.90;99.90;;;2.24;100.00;99806.41;5007766;28;20070;-77
2022/04/09 03:52:51;;;;;;;6.22;4.57;;;2.60;99.90;;;2.23;100.00;99805.53;5007550;28;20046;-77
2022/04/09 03:55:25;;;;;;;6.47;5.60;;;2.80;99.90;;;2.22;100.00;99811.59;5007255;28;20050;-78
2022/04/09 03:57:52;;;;;;;8.35;5.38;;;4.50;99.90;;;2.24;100.00;99821.97;5008267;28;20049;-78
2022/04/09 04:00:20;;;;;;;6.65;5.78;;;2.60;99.90;;;2.27;100.00;99814.19;5006370;28;20137;-78
2022/04/09 04:02:51;;;;;;;9.32;6.15;;;2.70;99.90;;;2.24;100.00;99822.81;4975442;28;20050;-77
2022/04/09 04:05:20;;;;;;;8.90;5.65;;;2.80;99.90;;;2.26;100.00;99831.50;5023963;28;20046;-78
2022/04/09 04:07:48;;;;;;;7.32;6.13;;;3.80;99.90;;;2.23;100.00;99828.88;4976130;28;20052;-78
2022/04/09 04:10:18;;;;;;;7.28;6.50;;;2.60;99.90;;;2.24;100.00;99837.56;4975821;28;20046;-78
2022/04/09 04:12:49;;;;;;;12.10;7.72;;;2.60;99.90;;;2.27;100.00;99840.16;4992442;28;20542;-78
2022/04/09 04:15:21;;;;;;;9.27;8.00;;;2.70;99.90;;;2.26;100.00;99847.09;4991814;28;20112;-77
2022/04/09 04:17:49;;;;;;;7.10;6.40;;;4.30;99.90;;;2.29;100.00;99860.94;5006229;28;20058;-78
2022/04/09 04:20:23;;;;;;;10.63;6.65;;;2.70;99.90;;;2.30;100.00;99865.25;4989586;28;20050;-77
2022/04/09 04:22:52;;;;;;;11.90;7.93;;;2.90;99.90;;;2.23;100.00;99873.00;4983542;28;20045;-78
2022/04/09 04:25:21;;;;;;;9.27;7.13;;;2.60;99.90;;;2.30;100.00;99886.88;5027123;28;20058;-77
2022/04/09 04:27:49;;;;;;;11.32;7.82;;;4.70;99.90;;;2.30;100.00;99888.63;5008582;28;20083;-77
2022/04/09 04:30:19;;;;;;;10.80;7.72;;;2.70;99.90;;;2.31;100.00;99890.34;5008213;28;20069;-77
2022/04/09 04:32:47;;;;;;;9.32;8.13;;;3.30;99.90;;;2.31;100.00;99892.94;5000670;28;20046;-78
2022/04/09 04:35:17;;;;;;;8.68;7.68;;;2.80;99.90;;;2.28;100.00;99901.59;5005253;28;20050;-78
2022/04/09 04:37:47;;;;;;;9.73;8.10;;;4.50;99.90;;;2.24;100.00;99900.72;5005655;28;20050;-77
2022/04/09 04:40:17;;;;;;;12.40;8.63;;;1.30;99.90;;;2.21;100.00;99899.84;4995422;28;20546;-78
2022/04/09 04:42:53;;;;;;;10.35;8.27;;;2.60;99.90;;;2.20;100.00;99905.91;5025124;28;20088;-78
2022/04/09 04:45:23;;;;;;;11.77;8.85;;;2.60;99.90;;;2.18;100.00;99908.50;5024390;28;20053;-77
2022/04/09 04:47:53;;;;;;;12.27;9.25;;;2.60;99.90;;;2.21;100.00;99916.28;5007043;28;20073;-78
2022/04/09 04:50:25;;;;;;;14.55;9.80;;;2.70;99.90;;;2.21;100.00;99913.69;5008147;28;20042;-77
2022/04/09 04:52:53;;;;;;;11.13;8.68;;;3.30;99.90;;;2.24;100.00;99918.03;4992154;28;20045;-77
2022/04/09 04:55:24;;;;;;;13.80;9.48;;;1.00;99.90;;;2.21;100.00;99921.47;5009195;28;20068;-78
2022/04/09 04:57:52;;;;;;;15.70;9.38;;;2.70;99.90;;;2.23;100.00;99931.88;5016207;28;20073;-77
2022/04/09 05:00:33;;;;;;;12.65;9.18;;;4.80;99.90;;;2.24;100.00;99944.00;5008468;28;20054;-78
2022/04/09 05:03:04;;;;;;;12.85;10.00;;;4.60;99.90;;;2.24;100.00;99947.44;5002907;28;20150;-77
2022/04/09 05:05:35;;;;;;;16.15;10.35;;;2.60;99.90;;;2.24;100.00;99954.38;4992149;28;20054;-77
2022/04/09 05:08:04;;;;;;;19.13;11.87;;;2.60;99.90;;;2.24;100.00;99960.41;5008127;28;20111;-78
2022/04/09 05:10:31;;;;;;;13.70;9.32;;;3.70;99.90;;;2.23;100.00;99966.47;5010185;28;20684;-80
2022/04/09 05:13:02;;;;;;;12.77;9.18;;;2.70;99.90;;;2.29;100.00;99969.97;4992633;28;20074;-79
2022/04/09 05:15:31;;;;;;;12.35;10.18;;;2.70;99.90;;;2.27;100.00;99975.16;4993999;28;20046;-80
2022/04/09 05:18:01;;;;;;;12.15;10.73;;;2.80;99.90;;;2.27;100.00;99982.94;4992819;28;20388;-80
2022/04/09 05:20:30;;;;;;;13.55;10.90;;;2.80;99.90;;;2.22;100.00;99985.50;5011682;28;20419;-80
2022/04/09 05:23:03;;;;;;;13.15;11.25;;;2.80;99.90;;;2.23;100.00;99984.66;5011848;28;20045;-79
2022/04/09 05:25:33;;;;;;;17.83;11.40;;;3.70;99.90;;;2.29;100.00;99991.59;4997888;28;20053;-78
2022/04/09 05:28:08;;;;;;;11.90;10.02;;;2.70;99.90;;;2.31;100.00;99989.88;4993795;28;20104;-79
2022/04/09 05:30:45;;;;;;;15.70;10.77;;;2.90;99.90;;;2.34;100.00;99999.41;4994180;28;20133;-80
2022/04/09 05:33:13;;;;;;;12.55;10.68;;;4.60;99.90;;;2.34;100.00;100005.47;4993446;28;20042;-78
2022/04/09 05:35:47;;;;;;;15.55;11.70;;;2.70;99.90;;;2.32;100.00;100006.31;5026535;28;20096;-80
2022/04/09 05:38:15;;;;;;;12.98;11.07;;;2.90;99.90;;;2.34;100.00;100017.59;4993304;28;20045;-80
2022/04/09 05:40:42;;;;;;;16.35;11.52;;;2.80;99.90;;;2.37;100.00;100009.78;4992150;28;20392;-80
2022/04/09 05:43:17;;;;;;;16.52;11.38;;;4.70;99.90;;;2.40;100.00;100015.88;4999639;28;20036;-79
2022/04/09 05:45:46;;;;;;;15.03;11.57;;;2.70;99.90;;;2.45;100.00;100026.28;5025753;28;20057;-79
2022/04/09 05:48:17;;;;;;;14.35;11.55;;;2.70;99.90;;;2.43;100.00;100025.41;4998513;28;20037;-80
2022/04/09 05:50:52;;;;;;;22.75;13.20;;;3.00;99.90;;;2.48;100.00;100039.28;4995141;28;20042;-79
2022/04/09 05:53:20;;;;;;;18.50;12.32;;;2.90;99.90;;;2.49;100.00;100041.00;5011118;28;20050;-80
2022/04/09 05:55:49;;;;;;;18.67;12.63;;;2.90;99.90;;;2.57;100.00;100046.25;5006366;28;20046;-79
2022/04/09 05:58:16;;;;;;;17.23;13.07;;;3.00;99.90;;;2.62;100.00;100054.06;4994263;28;20052;-79
2022/04/09 06:00:46;;;;;;;14.57;11.77;;;4.40;99.90;;;2.66;100.00;100051.47;5027772;28;20152;-79
2022/04/09 06:03:30;;;;;;;17.08;12.15;;;3.10;99.90;;;2.74;100.00;100059.28;5013354;28;20065;-80
2022/04/09 06:05:58;;;;;;;16.38;13.45;;;2.90;99.90;;;2.74;100.00;100066.22;5012925;28;20061;-79
2022/04/09 06:08:34;;;;;;;17.15;12.95;;;3.00;99.90;;;2.77;100.00;100080.09;4998882;28;20058;-80
2022/04/09 06:11:11;;;;;;;15.15;12.38;;;3.20;99.90;;;2.82;100.00;100082.72;4999544;28;20038;-80
2022/04/09 06:13:39;;;;;;;16.80;12.18;;;3.30;99.90;;;2.88;100.00;100089.63;4994251;28;20050;-80
2022/04/09 06:16:08;;;;;;;13.93;11.40;;;5.60;99.90;;;2.89;100.00;100091.34;5012922;28;20060;-79
2022/04/09 06:18:41;;;;;;;19.65;12.68;;;3.30;99.90;;;2.94;100.00;100103.50;5013850;28;20064;-78
2022/04/09 06:21:10;;;;;;;19.33;12.52;;;3.40;99.90;;;2.90;100.00;100101.78;4997479;28;20042;-79
2022/04/09 06:23:37;;;;;;;21.65;13.88;;;3.40;99.90;;;2.94;100.00;100108.72;5013103;28;20823;-79
2022/04/09 06:26:04;;;;;;;19.05;12.70;;;3.20;99.90;;;3.01;100.00;100113.94;4995348;28;20041;-78
2022/04/09 06:28:35;;;;;;;22.15;12.25;;;4.30;99.90;;;3.04;100.00;100121.75;4996595;28;20133;-78
2022/04/09 06:31:02;;;;;;;16.20;13.43;;;3.50;99.90;;;3.10;100.00;100124.34;5016140;28;20171;-77
2022/04/09 06:33:31;;;;;;;17.65;13.27;;;3.40;99.90;;;3.11;100.00;100134.75;5015520;28;20100;-78
2022/04/09 06:36:03;;;;;;;17.15;13.40;;;3.40;99.90;;;3.10;100.00;100137.34;4997330;28;20081;-78
2022/04/09 06:38:33;;;;;;;19.38;12.88;;;3.60;99.90;;;3.20;100.00;100138.25;4995577;28;20045;-79
2022/04/09 06:41:03;;;;;;;15.50;11.63;;;3.60;99.90;;;3.18;100.00;100143.44;5012117;28;20557;-79
2022/04/09 06:43:36;;;;;;;18.83;12.25;;;3.50;99.90;;;3.25;100.00;100149.53;5007434;28;20050;-79
2022/04/09 06:46:08;;;;;;;16.35;13.18;;;3.80;99.90;;;3.23;100.00;100146.91;5013390;28;20140;-77
2022/04/09 06:48:55;;;;;;;24.77;15.88;;;3.70;99.90;;;3.33;100.00;100153.00;5012571;28;20050;-77
2022/04/09 06:51:38;;;;;;;21.67;16.38;;;3.80;99.90;;;3.30;100.00;100157.34;5009193;28;20046;-77
2022/04/09 06:54:15;;;;;;;17.08;13.32;;;3.80;99.90;;;3.32;100.00;100153.88;5009698;28;20045;-76
2022/04/09 06:56:44;;;;;;;21.73;12.35;;;4.70;99.90;;;3.38;100.00;100156.50;5010280;28;20415;-75
2022/04/09 06:59:11;;;;;;;19.48;12.63;;;3.90;99.90;;;3.40;100.00;100159.97;5027762;28;20054;-79
2022/04/09 07:01:38;;;;;;;17.38;12.77;;;3.80;99.90;;;3.37;100.00;100165.19;5031608;28;20495;-78
2022/04/09 07:04:06;;;;;;;15.02;12.82;;;6.30;99.90;;;3.37;100.00;100169.50;5031527;28;20045;-81
2022/04/09 07:06:33;;;;;;;20.52;14.32;;;3.80;99.90;;;3.40;100.00;100167.78;5019773;28;20046;-79
2022/04/09 07:09:00;;;;;;;17.55;14.13;;;3.80;99.90;;;3.49;100.00;100174.72;5030495;28;20515;-78
2022/04/09 07:11:27;;;;;;;15.85;12.93;;;7.00;99.90;;;3.56;100.00;100170.41;5027275;28;20065;-78
2022/04/09 07:13:54;;;;;;;18.77;13.77;;;5.50;99.90;;;3.55;100.00;100171.28;5013790;28;20125;-81
2022/04/09 07:16:21;;;;;;;16.75;12.63;;;3.70;99.90;;;3.54;100.00;100169.53;5014768;28;20049;-80
2022/04/09 07:18:49;;;;;;;18.52;13.93;;;4.00;99.90;;;3.61;100.00;100183.44;5012179;28;20085;-77
2022/04/09 07:21:16;;;;;;;16.10;12.30;;;4.20;99.90;;;3.81;100.00;100181.72;5027554;28;20073;-78
2022/04/09 07:23:43;;;;;;;13.90;11.98;;;4.30;99.90;;;3.87;100.00;100183.47;5011133;28;20057;-77
2022/04/09 07:26:10;;;;;;;15.70;12.00;;;4.10;99.90;;;3.90;100.00;100199.06;5012850;28;20050;-77
2022/04/09 07:28:37;;;;;;;20.67;12.90;;;4.40;99.90;;;3.92;100.00;100199.09;5012685;28;20046;-77
2022/04/09 07:31:04;;;;;;;17.35;12.55;;;4.10;99.90;;;4.02;100.00;100192.16;5013923;28;20057;-77
2022/04/09 07:33:31;;;;;;;16.83;11.88;;;6.30;99.90;;;4.01;100.00;100193.88;5013184;28;20045;-77
2022/04/09 07:35:58;;;;;;;18.75;13.23;;;4.50;99.90;;;4.01;100.00;100198.22;5013948;28;20057;-78
2022/04/09 07:38:25;;;;;;;19.20;13.75;;;5.60;99.90;;;4.14;100.00;100202.56;5013328;28;20050;-77
2022/04/09 07:40:54;;;;;;;14.50;11.88;;;4.50;99.90;;;4.16;100.00;100193.00;5013261;28;20471;-78
2022/04/09 07:43:21;;;;;;;16.30;11.73;;;4.50;99.90;;;4.26;100.00;100196.47;5014177;28;20049;-79
2022/04/09 07:45:48;;;;;;;14.70;10.93;;;4.70;99.90;;;4.34;100.00;100199.06;5019653;28;20066;-77
2022/04/09 07:48:15;;;;;;;18.05;11.77;;;4.80;99.90;;;4.34;100.00;100201.66;5015868;28;20053;-77
2022/04/09 07:50:43;;;;;;;19.60;10.63;;;6.20;99.90;;;4.40;100.00;100205.16;5014660;28;20048;-78
2022/04/09 07:53:11;;;;;;;18.50;10.57;;;4.60;99.90;;;4.46;100.00;100200.78;5013336;28;20054;-78
2022/04/09 07:55:38;;;;;;;18.08;11.70;;;5.10;99.90;;;4.59;100.00;100206.81;5029032;28;20129;-79
2022/04/09 07:58:07;;;;;;;16.45;11.90;;;7.00;99.90;;;4.63;100.00;100213.78;5014183;28;20415;-78
2022/04/09 08:00:34;;;;;;;38.72;19.13;;;4.80;99.90;;;4.63;100.00;100213.78;4997051;28;20443;-81
2022/04/09 08:03:02;;;;;;;28.58;14.45;;;4.90;99.90;;;4.70;100.00;100214.66;5009806;28;20042;-77
2022/04/09 08:05:29;;;;;;;23.27;13.35;;;4.90;99.90;;;4.81;100.00;100202.44;5025967;28;20543;-77
2022/04/09 08:07:57;;;;;;;19.25;11.13;;;6.10;99.90;;;4.91;100.00;100213.69;5026345;28;20525;-76
2022/04/09 08:10:24;;;;;;;14.68;8.23;;;5.40;99.90;;;4.87;100.00;100212.88;4993737;28;20057;-76
2022/04/09 08:12:53;;;;;;;16.25;9.68;;;5.20;99.90;;;4.96;100.00;100211.97;5006408;28;20054;-76
2022/04/09 08:15:21;;;;;;;14.75;8.32;;;5.20;99.90;;;5.02;100.00;100204.09;5006865;28;20050;-77
2022/04/09 08:17:49;;;;;;;11.43;8.98;;;7.10;99.90;;;5.08;100.00;100217.16;5007997;28;20133;-77
2022/04/09 08:20:19;;;;;;;14.52;8.77;;;5.30;99.90;;;5.21;100.00;100214.47;5027402;28;20502;-77
2022/04/09 08:22:51;;;;;;;13.75;9.05;;;5.80;99.90;;;5.22;100.00;100221.41;5016571;28;20673;-78
2022/04/09 08:25:18;;;;;;;10.60;7.88;;;5.50;99.90;;;5.27;100.00;100224.00;4997643;28;20057;-77
2022/04/09 08:27:49;;;;;;;10.65;7.63;;;8.30;99.90;;;5.29;100.00;100230.06;5012077;28;20507;-79
2022/04/09 08:30:17;;;;;;;11.32;7.78;;;6.80;99.90;;;5.34;100.00;100221.34;4992634;28;20041;-78
2022/04/09 08:32:44;;;;;;;12.65;7.43;;;5.70;99.90;;;5.38;100.00;100214.38;5010478;28;20042;-78
2022/04/09 08:35:11;;;;;;;12.02;7.15;;;5.60;99.90;;;5.47;100.00;100216.09;5008816;28;20050;-78
2022/04/09 08:37:41;;;;;;;14.27;7.30;;;5.70;99.90;;;5.58;100.00;100213.41;4992930;28;20042;-80
2022/04/09 08:40:16;;;;;;;15.80;8.23;;;5.80;99.90;;;5.62;100.00;100218.59;4994415;28;20092;-80
2022/04/09 08:42:43;;;;;;;13.70;6.85;;;5.90;99.90;;;5.56;100.00;100212.56;4997844;28;20104;-81
2022/04/09 08:45:11;;;;;;;14.40;6.93;;;7.50;99.90;;;5.60;100.00;100211.66;5000689;28;20077;-79
2022/04/09 08:47:39;;;;;;;14.18;7.35;;;6.00;99.90;;;5.73;100.00;100207.25;5020947;28;20129;-80
2022/04/09 08:50:10;;;;;;;12.25;6.40;;;8.10;99.90;;;5.84;100.00;100228.03;5011075;28;20081;-81
2022/04/09 08:52:42;;;;;;;8.93;5.95;;;6.80;99.90;;;5.93;100.00;100222.75;5010299;28;20042;-79
2022/04/09 08:55:16;;;;;;;12.70;6.45;;;6.10;99.90;;;5.91;100.00;100227.13;5010168;28;20041;-75
2022/04/09 08:57:43;;;;;;;10.27;5.63;;;6.70;99.90;;;5.97;100.00;100233.16;4992036;28;20049;-76
2022/04/09 09:00:13;;;;;;;17.67;6.55;;;6.30;99.90;;;6.09;100.00;100239.22;5028055;28;20033;-77
2022/04/09 09:02:51;;;;;;;;;;;6.30;99.90;;;6.17;100.00;100241.78;5012677;28;20065;-77
2022/04/09 09:05:43;;;;;;;11.15;4.93;;;6.40;99.90;;;6.18;100.00;100233.94;5019881;28;19926;-76
2022/04/09 09:08:11;;;;;;;16.98;4.82;;;6.70;99.60;;;6.17;100.00;100234.81;5007087;28;20461;-76
2022/04/09 09:10:39;;;;;;;8.68;4.20;;;6.60;99.20;;;6.35;100.00;100235.53;5015357;28;20042;-77
2022/04/09 09:13:23;;;;;;;8.70;4.22;;;6.50;99.90;;;6.39;100.00;100227.63;5028816;28;20133;-76
2022/04/09 09:15:55;;;;;;;11.45;5.47;;;8.30;99.80;;;6.59;100.00;100239.66;5034269;28;20038;-77
2022/04/09 09:18:28;;;;;;;11.32;4.13;;;6.70;99.40;;;6.58;100.00;100247.50;5013361;28;20108;-77
2022/04/09 09:21:00;;;;;;;7.85;4.18;;;6.70;99.20;;;6.69;100.00;100244.78;5024248;28;20113;-76
2022/04/09 09:23:45;;;;;;;11.10;4.50;;;9.00;99.90;;;6.72;100.00;100255.25;5044509;28;20034;-76
2022/04/09 09:26:26;;;;;;;15.02;4.30;;;6.90;99.50;;;6.77;100.00;100243.81;5021749;28;20055;-75
2022/04/09 09:28:55;;;;;;;11.05;4.32;;;8.00;99.40;;;6.89;100.00;100253.31;4991900;28;20447;-77
2022/04/09 09:31:45;;;;;;;10.77;3.97;;;6.90;99.50;;;7.12;100.00;100246.94;5015651;28;20045;-76
2022/04/09 09:34:15;;;;;;;11.70;6.75;;;7.10;99.00;;;6.99;100.00;100254.06;4991365;28;20128;-75
2022/04/09 09:36:47;;;;;;;11.57;5.10;;;8.70;98.70;;;7.22;100.00;100252.94;5000819;28;20049;-75
2022/04/09 09:39:21;;;;;;;13.48;4.15;;;7.30;99.20;;;7.15;100.00;100251.28;5008336;28;20080;-76
2022/04/09 09:42:02;;;;;;;12.93;3.78;;;7.30;98.70;;;7.41;100.00;100260.56;5008030;28;20046;-76
2022/04/09 09:44:34;;;;;;;11.93;4.00;;;7.40;99.10;;;7.37;100.00;100260.59;5006654;28;20077;-75
2022/04/09 09:47:08;;;;;;;6.90;3.60;;;7.50;98.50;;;7.55;100.00;100265.63;5012323;28;20522;-76
2022/04/09 09:49:53;;;;;;;12.77;4.28;;;7.60;98.40;;;7.48;100.00;100262.22;5007685;28;20125;-76
2022/04/09 09:52:32;;;;;;;10.88;4.57;;;7.60;98.10;;;7.77;100.00;100268.81;5007068;28;20042;-77
2022/04/09 09:55:14;;;;;;;10.52;4.78;;;7.70;98.50;;;7.83;100.00;100273.13;5006665;28;20053;-76
2022/04/09 09:57:43;;;;;;;12.02;4.88;;;7.80;98.20;;;7.91;100.00;100260.75;4991978;28;20153;-78
2022/04/09 10:00:14;;;;;;;10.57;4.53;;;8.30;98.30;;;8.04;100.00;100270.16;5007069;28;20041;-76
2022/04/09 10:02:44;;;;;;;9.85;4.40;;;8.10;97.50;;;8.16;100.00;100273.50;4990412;28;20284;-76
2022/04/09 10:05:13;;;;;;;7.63;3.92;;;9.00;97.80;;;7.94;100.00;100279.94;5024598;28;20060;-78
2022/04/09 10:07:40;;;;;;;8.80;3.50;;;8.20;96.80;;;8.11;100.00;100275.31;5009316;28;20125;-78
2022/04/09 10:10:08;;;;;;;9.95;4.75;;;8.30;96.70;;;8.42;100.00;100278.31;5008029;28;20038;-77
2022/04/09 10:12:39;;;;;;;11.00;3.60;;;8.30;97.60;;;8.36;100.00;100286.28;5007772;28;20046;-78
2022/04/09 10:15:09;;;;;;;7.72;3.42;;;8.50;95.70;;;8.56;100.00;100288.59;5007949;28;20045;-77
2022/04/09 10:17:38;;;;;;;10.10;4.07;;;8.60;96.20;;;8.65;100.00;100283.19;5007964;28;20061;-76
2022/04/09 10:20:07;;;;;;;11.25;3.85;;;8.70;96.80;;;8.69;100.00;100286.66;5007586;28;20100;-77
2022/04/09 10:22:45;;;;;;;12.43;4.65;;;8.80;96.90;;;8.59;100.00;100288.56;5007630;28;20609;-76
2022/04/09 10:25:16;;;;;;;10.77;4.78;;;8.80;96.40;;;8.67;100.00;100284.94;5006747;28;20049;-74
2022/04/09 10:27:52;;;;;;;8.77;4.53;;;10.40;96.90;;;8.89;100.00;100280.16;5012306;28;20080;-74
2022/04/09 10:30:26;;;;;;;11.73;3.80;;;8.80;96.90;;;8.50;99.56;100284.31;5006624;28;20042;-74